createdAt,value
2018-10-21T00:00:27.308Z,8.4
2018-10-21T00:01:28.697Z,8.4
2018-10-21T00:02:30.136Z,8.5
2018-10-21T00:03:31.428Z,8.4
2018-10-21T00:04:32.816Z,8.5
2018-10-21T00:05:34.197Z,8.5
2018-10-21T00:06:35.581Z,8.4
2018-10-21T00:07:36.963Z,8.4
2018-10-21T00:08:38.350Z,8.3
2018-10-21T00:09:39.760Z,8.3
2018-10-21T00:10:41.147Z,8.3
2018-10-21T00:11:42.534Z,8.4
2018-10-21T00:12:43.916Z,8.4
2018-10-21T00:13:45.393Z,8.4
2018-10-21T00:14:46.823Z,8.3
2018-10-21T00:15:48.208Z,8.4
2018-10-21T00:16:49.592Z,8.3
2018-10-21T00:17:50.977Z,8.4
2018-10-21T00:18:52.368Z,8.5
2018-10-21T00:19:53.752Z,8.5
2018-10-21T00:20:55.140Z,8.5
2018-10-21T00:21:56.517Z,8.5
2018-10-21T00:22:57.902Z,8.3
2018-10-21T00:23:59.292Z,8.4
2018-10-21T00:25:00.681Z,8.3
2018-10-21T00:26:02.078Z,8.4
2018-10-21T00:27:03.488Z,8.4
2018-10-21T00:28:04.845Z,8.3
2018-10-21T00:29:06.229Z,8.4
2018-10-21T00:30:07.611Z,8.4
2018-10-21T00:31:08.994Z,8.5
2018-10-21T00:32:10.379Z,8.3
2018-10-21T00:33:11.793Z,8.4
2018-10-21T00:34:13.147Z,8.4
2018-10-21T00:35:14.531Z,8.3
2018-10-21T00:36:15.916Z,8.3
2018-10-21T00:37:17.301Z,8.3
2018-10-21T00:38:18.686Z,8.3
2018-10-21T00:39:20.072Z,8.3
2018-10-21T00:40:21.455Z,8.3
2018-10-21T00:41:22.839Z,8.3
2018-10-21T00:42:24.221Z,8.2
2018-10-21T00:43:25.606Z,8.3
2018-10-21T00:44:26.993Z,8.3
2018-10-21T00:45:28.379Z,8.3
2018-10-21T00:46:29.767Z,8.3
2018-10-21T00:47:31.149Z,8.4
2018-10-21T00:48:32.541Z,8.2
2018-10-21T00:49:33.919Z,8.3
2018-10-21T00:50:35.300Z,8.2
2018-10-21T00:51:36.686Z,8.2
2018-10-21T00:52:38.074Z,8.3
2018-10-21T00:53:39.463Z,8.3
2018-10-21T00:54:40.850Z,8.2
2018-10-21T00:55:42.234Z,8.2
2018-10-21T00:56:43.619Z,8.2
2018-10-21T00:57:45.005Z,8.2
2018-10-21T00:58:46.395Z,8.2
2018-10-21T00:59:47.781Z,8.2
2018-10-21T01:00:49.165Z,8.2
2018-10-21T01:01:50.552Z,8.2
2018-10-21T01:02:51.934Z,8.3
2018-10-21T01:03:53.317Z,8.1
2018-10-21T01:04:54.791Z,8.2
2018-10-21T01:05:56.217Z,8.2
2018-10-21T01:06:57.607Z,8.1
2018-10-21T01:07:58.993Z,8.1
2018-10-21T01:09:00.405Z,8.0
2018-10-21T01:10:01.761Z,8.0
2018-10-21T01:11:03.151Z,8.0
2018-10-21T01:12:04.534Z,8.0
2018-10-21T01:13:05.919Z,7.9
2018-10-21T01:14:07.307Z,7.9
2018-10-21T01:15:08.748Z,8.0
2018-10-21T01:16:10.074Z,8.0
2018-10-21T01:17:11.475Z,8.0
2018-10-21T01:18:12.846Z,8.0
2018-10-21T01:19:14.230Z,8.0
2018-10-21T01:20:15.617Z,7.9
2018-10-21T01:21:17.068Z,7.8
2018-10-21T01:22:18.398Z,8.0
2018-10-21T01:23:19.775Z,7.8
2018-10-21T01:24:21.156Z,7.8
2018-10-21T01:25:22.547Z,7.9
2018-10-21T01:26:23.946Z,7.9
2018-10-21T01:27:25.334Z,7.9
2018-10-21T01:28:26.721Z,7.8
2018-10-21T01:29:28.157Z,7.8
2018-10-21T01:30:29.488Z,7.8
2018-10-21T01:31:30.873Z,7.8
2018-10-21T01:32:32.259Z,7.7
2018-10-21T01:33:33.648Z,7.7
2018-10-21T01:34:35.038Z,7.7
2018-10-21T01:35:36.424Z,7.7
2018-10-21T01:36:38.078Z,7.7
2018-10-21T01:37:39.241Z,7.7
2018-10-21T01:38:40.590Z,7.7
2018-10-21T01:39:41.991Z,7.6
2018-10-21T01:40:43.378Z,7.6
2018-10-21T01:41:44.762Z,7.6
2018-10-21T01:42:46.144Z,7.5
2018-10-21T01:43:47.527Z,7.6
2018-10-21T01:44:48.918Z,7.5
2018-10-21T01:45:50.300Z,7.5
2018-10-21T01:46:51.690Z,7.4
2018-10-21T01:47:53.074Z,7.5
2018-10-21T01:48:54.465Z,7.5
2018-10-21T01:49:55.853Z,7.4
2018-10-21T01:50:57.244Z,7.4
2018-10-21T01:51:58.626Z,7.4
2018-10-21T01:53:00.008Z,7.4
2018-10-21T01:54:01.396Z,7.4
2018-10-21T01:55:02.776Z,7.4
2018-10-21T01:56:04.234Z,7.5
2018-10-21T01:57:05.691Z,7.4
2018-10-21T01:58:06.988Z,7.4
2018-10-21T01:59:08.378Z,7.4
2018-10-21T02:00:09.756Z,7.4
2018-10-21T02:01:11.135Z,7.3
2018-10-21T02:02:12.522Z,7.3
2018-10-21T02:03:13.964Z,7.4
2018-10-21T02:04:15.291Z,7.3
2018-10-21T02:05:16.680Z,7.3
2018-10-21T02:06:18.062Z,7.3
2018-10-21T02:07:19.445Z,7.3
2018-10-21T02:08:20.832Z,7.2
2018-10-21T02:09:22.217Z,7.2
2018-10-21T02:10:23.603Z,7.2
2018-10-21T02:11:24.983Z,7.2
2018-10-21T02:12:26.370Z,7.2
2018-10-21T02:13:27.758Z,7.2
2018-10-21T02:14:29.140Z,7.3
2018-10-21T02:15:30.521Z,7.3
2018-10-21T02:16:31.905Z,7.2
2018-10-21T02:17:33.290Z,7.2
2018-10-21T02:18:34.724Z,7.2
2018-10-21T02:19:36.061Z,7.1
2018-10-21T02:20:37.443Z,7.2
2018-10-21T02:21:38.828Z,7.3
2018-10-21T02:22:40.208Z,7.2
2018-10-21T02:23:41.591Z,7.2
2018-10-21T02:24:42.976Z,7.2
2018-10-21T02:25:44.367Z,7.2
2018-10-21T02:26:45.782Z,7.3
2018-10-21T02:27:47.144Z,7.3
2018-10-21T02:28:48.527Z,7.2
2018-10-21T02:29:49.911Z,7.2
2018-10-21T02:30:51.292Z,7.3
2018-10-21T02:31:52.674Z,7.2
2018-10-21T02:32:54.155Z,7.2
2018-10-21T02:33:55.446Z,7.2
2018-10-21T02:34:56.830Z,7.3
2018-10-21T02:35:58.212Z,7.2
2018-10-21T02:36:59.591Z,7.2
2018-10-21T02:38:00.972Z,7.2
2018-10-21T02:39:02.381Z,7.1
2018-10-21T02:40:03.742Z,7.1
2018-10-21T02:41:05.132Z,7.2
2018-10-21T02:42:06.517Z,7.2
2018-10-21T02:43:07.900Z,7.3
2018-10-21T02:44:09.280Z,7.3
2018-10-21T02:45:10.696Z,7.3
2018-10-21T02:46:12.053Z,7.2
2018-10-21T02:47:13.469Z,7.3
2018-10-21T02:48:14.941Z,7.2
2018-10-21T02:49:16.324Z,7.2
2018-10-21T02:50:17.712Z,7.2
2018-10-21T02:51:19.139Z,7.2
2018-10-21T02:52:20.479Z,7.2
2018-10-21T02:53:21.862Z,7.1
2018-10-21T02:54:23.244Z,7.1
2018-10-21T02:55:24.632Z,7.2
2018-10-21T02:56:26.020Z,7.1
2018-10-21T02:57:27.411Z,7.1
2018-10-21T02:58:28.793Z,7.1
2018-10-21T02:59:30.183Z,7.0
2018-10-21T03:00:31.570Z,7.0
2018-10-21T03:01:32.953Z,7.0
2018-10-21T03:02:34.342Z,7.0
2018-10-21T03:03:35.731Z,7.0
2018-10-21T03:04:37.119Z,7.0
2018-10-21T03:05:38.510Z,7.0
2018-10-21T03:06:39.878Z,6.9
2018-10-21T03:07:41.270Z,7.0
2018-10-21T03:08:42.654Z,6.9
2018-10-21T03:09:44.052Z,7.0
2018-10-21T03:10:45.441Z,7.0
2018-10-21T03:11:46.818Z,7.0
2018-10-21T03:12:48.207Z,7.0
2018-10-21T03:13:49.593Z,7.1
2018-10-21T03:14:50.973Z,7.0
2018-10-21T03:15:52.357Z,7.1
2018-10-21T03:16:53.758Z,7.1
2018-10-21T03:17:55.138Z,7.1
2018-10-21T03:18:56.520Z,7.1
2018-10-21T03:19:57.908Z,7.2
2018-10-21T03:20:59.363Z,7.2
2018-10-21T03:22:00.680Z,7.2
2018-10-21T03:23:02.060Z,7.2
2018-10-21T03:24:03.446Z,7.2
2018-10-21T03:25:04.837Z,7.2
2018-10-21T03:26:06.217Z,7.2
2018-10-21T03:27:07.630Z,7.2
2018-10-21T03:28:08.983Z,7.1
2018-10-21T03:29:10.366Z,7.2
2018-10-21T03:30:11.754Z,7.2
2018-10-21T03:31:13.144Z,7.1
2018-10-21T03:32:14.527Z,7.2
2018-10-21T03:33:16.029Z,7.2
2018-10-21T03:34:17.308Z,7.2
2018-10-21T03:35:18.694Z,7.3
2018-10-21T03:36:20.074Z,7.1
2018-10-21T03:37:21.457Z,7.1
2018-10-21T03:38:22.903Z,7.1
2018-10-21T03:39:24.420Z,7.1
2018-10-21T03:40:25.807Z,7.1
2018-10-21T03:41:27.203Z,7.1
2018-10-21T03:42:28.587Z,7.0
2018-10-21T03:43:29.976Z,7.1
2018-10-21T03:44:31.361Z,7.0
2018-10-21T03:45:32.750Z,7.0
2018-10-21T03:46:34.133Z,7.0
2018-10-21T03:47:35.516Z,7.0
2018-10-21T03:48:36.895Z,7.0
2018-10-21T03:49:38.277Z,6.9
2018-10-21T03:50:39.663Z,7.0
2018-10-21T03:51:41.047Z,6.9
2018-10-21T03:52:42.431Z,6.9
2018-10-21T03:53:43.815Z,6.9
2018-10-21T03:54:45.194Z,6.9
2018-10-21T03:55:46.585Z,6.8
2018-10-21T03:56:47.967Z,6.8
2018-10-21T03:57:49.348Z,6.8
2018-10-21T03:58:50.730Z,6.8
2018-10-21T03:59:52.116Z,6.8
2018-10-21T04:00:53.507Z,6.7
2018-10-21T04:01:54.892Z,6.8
2018-10-21T04:02:56.277Z,6.9
2018-10-21T04:03:57.701Z,6.8
2018-10-21T04:04:59.040Z,6.8
2018-10-21T04:06:00.427Z,6.8
2018-10-21T04:07:01.818Z,6.9
2018-10-21T04:08:03.200Z,6.8
2018-10-21T04:09:04.585Z,6.9
2018-10-21T04:10:05.987Z,6.9
2018-10-21T04:11:07.354Z,6.9
2018-10-21T04:12:08.736Z,7.1
2018-10-21T04:13:10.123Z,7.0
2018-10-21T04:14:11.507Z,7.1
2018-10-21T04:15:12.891Z,7.0
2018-10-21T04:16:14.362Z,7.0
2018-10-21T04:17:15.653Z,7.1
2018-10-21T04:18:17.036Z,7.1
2018-10-21T04:19:18.417Z,7.1
2018-10-21T04:20:19.810Z,7.1
2018-10-21T04:21:21.193Z,7.1
2018-10-21T04:22:22.578Z,7.1
2018-10-21T04:23:23.963Z,7.1
2018-10-21T04:24:25.348Z,7.1
2018-10-21T04:25:26.732Z,7.1
2018-10-21T04:26:28.116Z,7.0
2018-10-21T04:27:29.506Z,7.0
2018-10-21T04:28:30.894Z,6.9
2018-10-21T04:29:32.412Z,6.9
2018-10-21T04:30:33.830Z,6.9
2018-10-21T04:31:35.214Z,7.0
2018-10-21T04:32:36.600Z,6.9
2018-10-21T04:33:37.978Z,7.0
2018-10-21T04:34:39.365Z,7.0
2018-10-21T04:35:40.751Z,7.0
2018-10-21T04:36:42.139Z,6.9
2018-10-21T04:37:43.521Z,7.0
2018-10-21T04:38:44.903Z,6.9
2018-10-21T04:39:46.285Z,6.9
2018-10-21T04:40:47.672Z,6.9
2018-10-21T04:41:49.058Z,6.9
2018-10-21T04:42:50.445Z,6.9
2018-10-21T04:43:51.835Z,6.9
2018-10-21T04:44:53.228Z,6.9
2018-10-21T04:45:54.647Z,6.8
2018-10-21T04:46:56.156Z,6.8
2018-10-21T04:47:57.375Z,6.8
2018-10-21T04:48:58.760Z,6.8
2018-10-21T04:50:00.145Z,6.9
2018-10-21T04:51:01.533Z,6.9
2018-10-21T04:52:02.912Z,6.8
2018-10-21T04:53:04.293Z,6.8
2018-10-21T04:54:05.697Z,6.8
2018-10-21T04:55:07.066Z,6.7
2018-10-21T04:56:08.456Z,6.7
2018-10-21T04:57:09.841Z,6.7
2018-10-21T04:58:11.302Z,6.7
2018-10-21T04:59:12.613Z,6.6
2018-10-21T05:00:14.000Z,6.7
2018-10-21T05:01:15.377Z,6.6
2018-10-21T05:02:16.762Z,6.7
2018-10-21T05:03:18.145Z,6.6
2018-10-21T05:04:19.531Z,6.7
2018-10-21T05:05:20.917Z,6.7
2018-10-21T05:06:22.294Z,6.7
2018-10-21T05:07:23.729Z,6.6
2018-10-21T05:08:25.060Z,6.7
2018-10-21T05:09:26.444Z,6.7
2018-10-21T05:10:27.828Z,6.6
2018-10-21T05:11:29.211Z,6.6
2018-10-21T05:12:30.601Z,6.6
2018-10-21T05:13:31.983Z,6.7
2018-10-21T05:14:33.367Z,6.7
2018-10-21T05:15:34.757Z,6.7
2018-10-21T05:16:36.154Z,6.6
2018-10-21T05:17:37.528Z,6.7
2018-10-21T05:18:38.915Z,6.7
2018-10-21T05:19:40.300Z,6.6
2018-10-21T05:20:41.732Z,6.7
2018-10-21T05:21:43.142Z,6.7
2018-10-21T05:22:44.526Z,6.7
2018-10-21T05:23:45.951Z,6.7
2018-10-21T05:24:47.298Z,6.7
2018-10-21T05:25:48.683Z,6.7
2018-10-21T05:26:50.071Z,6.8
2018-10-21T05:27:51.454Z,6.7
2018-10-21T05:28:52.856Z,6.7
2018-10-21T05:29:54.241Z,6.7
2018-10-21T05:30:55.629Z,6.7
2018-10-21T05:31:57.022Z,6.7
2018-10-21T05:32:58.399Z,6.7
2018-10-21T05:33:59.796Z,6.7
2018-10-21T05:35:01.166Z,6.7
2018-10-21T05:36:02.544Z,6.7
2018-10-21T05:37:03.927Z,6.7
2018-10-21T05:38:05.310Z,6.7
2018-10-21T05:39:06.695Z,6.7
2018-10-21T05:40:08.106Z,6.7
2018-10-21T05:41:09.464Z,6.7
2018-10-21T05:42:10.847Z,6.8
2018-10-21T05:43:12.229Z,6.8
2018-10-21T05:44:13.613Z,6.8
2018-10-21T05:45:15.000Z,6.8
2018-10-21T05:46:16.452Z,6.9
2018-10-21T05:47:17.830Z,6.9
2018-10-21T05:48:19.111Z,6.9
2018-10-21T05:49:20.498Z,6.9
2018-10-21T05:50:21.889Z,6.9
2018-10-21T05:51:23.263Z,7.0
2018-10-21T05:52:24.649Z,6.9
2018-10-21T05:53:26.036Z,7.0
2018-10-21T05:54:27.422Z,7.0
2018-10-21T05:55:28.807Z,6.9
2018-10-21T05:56:30.192Z,7.0
2018-10-21T05:57:31.579Z,6.9
2018-10-21T05:58:32.967Z,7.0
2018-10-21T05:59:34.358Z,7.0
2018-10-21T06:00:35.735Z,7.0
2018-10-21T06:01:37.126Z,7.0
2018-10-21T06:02:38.512Z,7.0
2018-10-21T06:03:39.898Z,7.0
2018-10-21T06:04:41.281Z,7.0
2018-10-21T06:05:42.670Z,7.1
2018-10-21T06:06:44.063Z,7.0
2018-10-21T06:07:45.455Z,7.1
2018-10-21T06:08:46.842Z,7.1
2018-10-21T06:09:48.231Z,7.0
2018-10-21T06:10:49.622Z,7.1
2018-10-21T06:11:51.021Z,7.1
2018-10-21T06:12:52.456Z,7.1
2018-10-21T06:13:53.847Z,7.1
2018-10-21T06:14:55.235Z,7.1
2018-10-21T06:15:56.669Z,7.0
2018-10-21T06:16:58.012Z,7.0
2018-10-21T06:17:59.395Z,7.0
2018-10-21T06:19:00.781Z,7.0
2018-10-21T06:20:02.170Z,7.0
2018-10-21T06:21:03.556Z,7.0
2018-10-21T06:22:05.017Z,6.9
2018-10-21T06:23:06.330Z,6.9
2018-10-21T06:24:07.721Z,6.9
2018-10-21T06:25:09.106Z,7.0
2018-10-21T06:26:10.494Z,6.9
2018-10-21T06:27:11.877Z,7.0
2018-10-21T06:28:13.263Z,6.9
2018-10-21T06:29:14.651Z,6.9
2018-10-21T06:30:16.053Z,7.0
2018-10-21T06:31:17.448Z,6.9
2018-10-21T06:32:18.835Z,6.9
2018-10-21T06:33:20.226Z,6.9
2018-10-21T06:34:21.614Z,6.9
2018-10-21T06:35:23.026Z,6.9
2018-10-21T06:36:24.414Z,6.8
2018-10-21T06:37:25.805Z,6.9
2018-10-21T06:38:27.196Z,6.9
2018-10-21T06:39:28.590Z,7.0
2018-10-21T06:40:29.975Z,6.9
2018-10-21T06:41:31.363Z,6.9
2018-10-21T06:42:32.749Z,7.0
2018-10-21T06:43:34.145Z,7.0
2018-10-21T06:44:35.536Z,7.0
2018-10-21T06:45:36.971Z,7.1
2018-10-21T06:46:38.317Z,7.1
2018-10-21T06:47:39.708Z,7.1
2018-10-21T06:48:41.099Z,7.1
2018-10-21T06:49:42.496Z,7.1
2018-10-21T06:50:43.885Z,7.1
2018-10-21T06:51:45.270Z,7.1
2018-10-21T06:52:46.660Z,7.1
2018-10-21T06:53:48.053Z,7.1
2018-10-21T06:54:49.440Z,7.2
2018-10-21T06:55:50.829Z,7.2
2018-10-21T06:56:52.291Z,7.2
2018-10-21T06:57:53.744Z,7.4
2018-10-21T06:58:55.031Z,7.4
2018-10-21T06:59:56.423Z,7.4
2018-10-21T07:00:57.819Z,7.3
2018-10-21T07:01:59.246Z,7.4
2018-10-21T07:03:00.705Z,7.5
2018-10-21T07:04:02.163Z,7.5
2018-10-21T07:05:03.610Z,7.5
2018-10-21T07:06:04.927Z,7.6
2018-10-21T07:07:06.317Z,7.6
2018-10-21T07:08:07.704Z,7.6
2018-10-21T07:09:09.093Z,7.7
2018-10-21T07:10:10.533Z,7.7
2018-10-21T07:11:11.864Z,7.8
2018-10-21T07:12:13.252Z,7.7
2018-10-21T07:13:14.640Z,7.8
2018-10-21T07:14:16.029Z,7.8
2018-10-21T07:15:17.482Z,7.8
2018-10-21T07:16:18.812Z,7.8
2018-10-21T07:17:20.202Z,7.9
2018-10-21T07:18:21.591Z,7.9
2018-10-21T07:19:22.983Z,7.9
2018-10-21T07:20:24.377Z,8.0
2018-10-21T07:21:25.768Z,8.0
2018-10-21T07:22:27.154Z,8.0
2018-10-21T07:23:28.542Z,8.0
2018-10-21T07:24:29.932Z,8.0
2018-10-21T07:25:31.316Z,8.0
2018-10-21T07:26:32.707Z,8.0
2018-10-21T07:27:34.097Z,8.2
2018-10-21T07:28:35.665Z,8.2
2018-10-21T07:29:36.875Z,8.3
2018-10-21T07:30:38.267Z,8.2
2018-10-21T07:31:39.657Z,8.2
2018-10-21T07:32:41.052Z,8.3
2018-10-21T07:33:42.439Z,8.4
2018-10-21T07:34:43.831Z,8.3
2018-10-21T07:35:45.220Z,8.4
2018-10-21T07:36:46.608Z,8.3
2018-10-21T07:37:47.996Z,8.5
2018-10-21T07:38:49.380Z,8.5
2018-10-21T07:39:50.767Z,8.5
2018-10-21T07:40:52.160Z,8.5
2018-10-21T07:41:53.579Z,8.6
2018-10-21T07:42:55.057Z,8.6
2018-10-21T07:43:56.462Z,8.6
2018-10-21T07:44:57.848Z,8.7
2018-10-21T07:45:59.252Z,8.8
2018-10-21T07:47:00.628Z,8.8
2018-10-21T07:48:02.014Z,8.9
2018-10-21T07:49:03.486Z,8.8
2018-10-21T07:50:04.767Z,8.9
2018-10-21T07:51:06.180Z,9.0
2018-10-21T07:52:07.682Z,9.0
2018-10-21T07:53:09.113Z,9.1
2018-10-21T07:54:10.547Z,9.1
2018-10-21T07:55:11.974Z,9.1
2018-10-21T07:56:13.335Z,9.2
2018-10-21T07:57:14.725Z,9.2
2018-10-21T07:58:16.191Z,9.2
2018-10-21T07:59:17.533Z,9.3
2018-10-21T08:00:18.926Z,9.3
2018-10-21T08:01:20.349Z,9.3
2018-10-21T08:02:21.779Z,9.4
2018-10-21T08:03:23.178Z,9.4
2018-10-21T08:04:24.687Z,9.5
2018-10-21T08:05:26.079Z,9.4
2018-10-21T08:06:27.468Z,9.5
2018-10-21T08:07:28.858Z,9.6
2018-10-21T08:08:30.322Z,9.6
2018-10-21T08:09:31.668Z,9.7
2018-10-21T08:10:33.059Z,9.7
2018-10-21T08:11:34.460Z,9.7
2018-10-21T08:12:35.849Z,9.9
2018-10-21T08:13:37.237Z,9.9
2018-10-21T08:14:38.669Z,10.0
2018-10-21T08:15:40.036Z,9.9
2018-10-21T08:16:41.431Z,10.0
2018-10-21T08:17:42.847Z,10.1
2018-10-21T08:18:44.230Z,10.2
2018-10-21T08:19:45.622Z,10.3
2018-10-21T08:20:47.012Z,10.2
2018-10-21T08:21:48.399Z,10.4
2018-10-21T08:22:49.788Z,10.3
2018-10-21T08:23:51.180Z,10.4
2018-10-21T08:24:52.571Z,10.5
2018-10-21T08:25:54.008Z,10.5
2018-10-21T08:26:55.413Z,10.6
2018-10-21T08:27:56.844Z,10.6
2018-10-21T08:28:58.241Z,10.7
2018-10-21T08:29:59.635Z,10.7
2018-10-21T08:31:01.037Z,10.8
2018-10-21T08:32:02.428Z,10.8
2018-10-21T08:33:04.005Z,10.9
2018-10-21T08:34:05.537Z,10.9
2018-10-21T08:35:07.446Z,11.0
2018-10-21T08:36:08.938Z,11.0
2018-10-21T08:37:10.232Z,11.1
2018-10-21T08:38:11.622Z,11.1
2018-10-21T08:39:13.355Z,11.3
2018-10-21T08:40:14.909Z,11.2
2018-10-21T08:41:16.222Z,11.3
2018-10-21T08:42:17.625Z,11.4
2018-10-21T08:43:19.017Z,11.4
2018-10-21T08:44:20.408Z,11.4
2018-10-21T08:45:21.808Z,11.6
2018-10-21T08:46:23.342Z,11.7
2018-10-21T08:47:24.571Z,11.7
2018-10-21T08:48:25.967Z,11.8
2018-10-21T08:49:27.366Z,11.8
2018-10-21T08:50:28.771Z,11.9
2018-10-21T08:51:30.165Z,11.9
2018-10-21T08:52:31.566Z,12.0
2018-10-21T08:53:32.977Z,12.1
2018-10-21T08:54:34.394Z,12.1
2018-10-21T08:55:35.785Z,12.2
2018-10-21T08:56:37.178Z,12.3
2018-10-21T08:57:38.571Z,12.3
2018-10-21T08:58:39.970Z,12.4
2018-10-21T08:59:41.374Z,12.5
2018-10-21T09:00:42.861Z,12.5
2018-10-21T09:01:44.257Z,12.6
2018-10-21T09:02:45.654Z,12.7
2018-10-21T09:03:47.051Z,12.7
2018-10-21T09:04:48.441Z,12.8
2018-10-21T09:05:49.846Z,12.9
2018-10-21T09:06:51.245Z,12.9
2018-10-21T09:07:52.655Z,13.0
2018-10-21T09:08:54.079Z,13.1
2018-10-21T09:09:55.499Z,13.2
2018-10-21T09:10:56.936Z,13.3
2018-10-21T09:11:58.297Z,13.4
2018-10-21T09:12:59.711Z,13.4
2018-10-21T09:14:01.097Z,13.6
2018-10-21T09:15:02.502Z,13.7
2018-10-21T09:16:03.962Z,13.6
2018-10-21T09:17:05.550Z,13.8
2018-10-21T09:18:07.023Z,13.8
2018-10-21T09:19:08.491Z,14.0
2018-10-21T09:20:09.815Z,14.0
2018-10-21T09:21:11.211Z,14.0
2018-10-21T09:22:12.856Z,14.1
2018-10-21T09:23:14.182Z,14.2
2018-10-21T09:24:15.580Z,14.3
2018-10-21T09:25:17.061Z,14.3
2018-10-21T09:26:18.455Z,14.6
2018-10-21T09:27:19.986Z,14.7
2018-10-21T09:28:21.384Z,14.7
2018-10-21T09:29:22.795Z,14.9
2018-10-21T09:30:24.268Z,14.9
2018-10-21T09:31:25.667Z,15.0
2018-10-21T09:32:27.053Z,15.1
2018-10-21T09:33:28.564Z,15.2
2018-10-21T09:34:29.891Z,15.3
2018-10-21T09:35:31.289Z,15.4
2018-10-21T09:36:32.693Z,15.5
2018-10-21T09:37:34.095Z,15.6
2018-10-21T09:38:35.499Z,15.7
2018-10-21T09:39:36.902Z,15.8
2018-10-21T09:40:38.309Z,16.0
2018-10-21T09:41:39.707Z,16.1
2018-10-21T09:42:41.105Z,16.2
2018-10-21T09:43:42.507Z,16.3
2018-10-21T09:44:43.918Z,16.5
2018-10-21T09:45:45.316Z,16.6
2018-10-21T09:46:46.716Z,16.8
2018-10-21T09:47:48.117Z,17.0
2018-10-21T09:48:49.519Z,17.3
2018-10-21T09:49:51.006Z,17.4
2018-10-21T09:50:52.347Z,17.8
2018-10-21T09:51:53.764Z,18.0
2018-10-21T09:52:55.170Z,18.4
2018-10-21T09:53:56.572Z,18.6
2018-10-21T09:54:58.006Z,18.9
2018-10-21T09:55:59.370Z,19.1
2018-10-21T09:57:00.781Z,19.6
2018-10-21T09:58:02.284Z,20.1
2018-10-21T09:59:03.614Z,20.5
2018-10-21T10:00:05.018Z,20.7
2018-10-21T10:01:06.582Z,21.1
2018-10-21T10:02:07.922Z,21.6
2018-10-21T10:03:09.334Z,22.0
2018-10-21T10:04:10.776Z,22.4
2018-10-21T10:05:12.193Z,22.8
2018-10-21T10:06:13.544Z,23.2
2018-10-21T10:07:15.097Z,23.6
2018-10-21T10:08:16.353Z,23.9
2018-10-21T10:09:17.754Z,24.6
2018-10-21T10:10:19.158Z,25.1
2018-10-21T10:11:20.574Z,25.4
2018-10-21T10:12:21.991Z,25.9
2018-10-21T10:13:23.515Z,26.4
2018-10-21T10:14:25.026Z,26.8
2018-10-21T10:15:26.474Z,27.1
2018-10-21T10:16:27.887Z,27.4
2018-10-21T10:17:29.366Z,27.7
2018-10-21T10:18:30.781Z,28.2
2018-10-21T10:19:33.110Z,28.6
2018-10-21T10:20:34.534Z,29.0
2018-10-21T10:21:36.452Z,29.2
2018-10-21T10:22:37.977Z,29.4
2018-10-21T10:23:39.819Z,29.5
2018-10-21T10:24:41.581Z,29.7
2018-10-21T10:25:43.399Z,30.0
2018-10-21T10:26:45.295Z,30.3
2018-10-21T10:27:47.057Z,30.6
2018-10-21T10:28:48.714Z,30.8
2018-10-21T10:29:50.333Z,31.0
2018-10-21T10:30:52.394Z,31.2
2018-10-21T10:31:54.044Z,31.4
2018-10-21T10:32:55.853Z,31.4
2018-10-21T10:33:57.595Z,31.6
2018-10-21T10:34:59.289Z,31.8
2018-10-21T10:36:00.937Z,32.1
2018-10-21T10:37:02.583Z,32.4
2018-10-21T10:38:04.228Z,32.5
2018-10-21T10:39:05.893Z,32.6
2018-10-21T10:40:07.706Z,32.3
2018-10-21T10:41:09.293Z,32.3
2018-10-21T10:42:10.871Z,32.6
2018-10-21T10:43:12.649Z,32.8
2018-10-21T10:44:14.254Z,32.8
2018-10-21T10:45:15.809Z,33.2
2018-10-21T10:46:17.851Z,33.4
2018-10-21T10:47:19.545Z,33.6
2018-10-21T10:48:21.128Z,33.9
2018-10-21T10:49:22.784Z,34.1
2018-10-21T10:50:24.479Z,33.7
2018-10-21T10:51:26.076Z,33.8
2018-10-21T10:52:27.814Z,34.2
2018-10-21T10:53:29.338Z,34.3
2018-10-21T10:54:31.044Z,34.4
2018-10-21T10:55:32.624Z,34.2
2018-10-21T10:56:34.409Z,33.7
2018-10-21T10:57:36.061Z,33.3
2018-10-21T10:58:37.903Z,32.7
2018-10-21T10:59:39.694Z,32.0
2018-10-21T11:00:41.219Z,31.4
2018-10-21T11:01:42.855Z,30.8
2018-10-21T11:02:44.600Z,30.3
2018-10-21T11:03:46.313Z,29.7
2018-10-21T11:04:48.062Z,29.4
2018-10-21T11:05:50.006Z,29.0
2018-10-21T11:06:51.801Z,28.8
2018-10-21T11:07:53.500Z,28.3
2018-10-21T11:08:55.410Z,28.2
2018-10-21T11:09:57.224Z,28.1
2018-10-21T11:10:59.088Z,28.5
2018-10-21T11:12:00.970Z,28.9
2018-10-21T11:13:02.724Z,29.6
2018-10-21T11:14:04.421Z,30.2
2018-10-21T11:15:06.216Z,30.8
2018-10-21T11:16:08.097Z,31.1
2018-10-21T11:17:09.971Z,31.1
2018-10-21T11:18:11.836Z,30.7
2018-10-21T11:19:13.536Z,30.1
2018-10-21T11:20:15.271Z,29.5
2018-10-21T11:21:17.075Z,28.9
2018-10-21T11:22:19.117Z,28.5
2018-10-21T11:23:21.105Z,28.0
2018-10-21T11:24:23.189Z,27.7
2018-10-21T11:25:24.708Z,27.5
2018-10-21T11:26:27.085Z,27.3
2018-10-21T11:27:28.944Z,26.9
2018-10-21T11:28:30.960Z,26.8
2018-10-21T11:29:33.020Z,26.6
2018-10-21T11:30:35.018Z,26.4
2018-10-21T11:31:36.719Z,26.2
2018-10-21T11:32:38.892Z,26.1
2018-10-21T11:33:40.551Z,25.9
2018-10-21T11:34:42.438Z,25.8
2018-10-21T11:35:44.398Z,25.6
2018-10-21T11:36:46.096Z,25.6
2018-10-21T11:37:47.785Z,25.4
2018-10-21T11:38:49.586Z,25.3
2018-10-21T11:39:51.419Z,25.3
2018-10-21T11:40:52.941Z,25.2
2018-10-21T11:41:54.986Z,25.1
2018-10-21T11:42:56.718Z,25.0
2018-10-21T11:43:58.387Z,25.0
2018-10-21T11:45:00.524Z,24.9
2018-10-21T11:46:02.516Z,24.9
2018-10-21T11:47:04.248Z,24.8
2018-10-21T11:48:05.950Z,24.8
2018-10-21T11:49:07.975Z,24.7
2018-10-21T11:50:09.785Z,24.6
2018-10-21T11:51:11.678Z,24.7
2018-10-21T11:52:13.847Z,24.7
2018-10-21T11:53:15.569Z,24.7
2018-10-21T11:54:17.516Z,24.6
2018-10-21T11:55:19.625Z,24.6
2018-10-21T11:56:21.222Z,24.6
2018-10-21T11:57:23.303Z,24.6
2018-10-21T11:58:24.975Z,24.6
2018-10-21T11:59:26.660Z,24.6
2018-10-21T12:00:28.399Z,24.5
2018-10-21T12:01:30.010Z,24.3
2018-10-21T12:02:31.814Z,24.2
2018-10-21T12:03:33.676Z,24.2
2018-10-21T12:04:35.337Z,24.2
2018-10-21T12:05:37.178Z,24.2
2018-10-21T12:06:39.012Z,24.1
2018-10-21T12:07:40.741Z,24.1
2018-10-21T12:08:42.535Z,24.1
2018-10-21T12:09:44.422Z,24.2
2018-10-21T12:10:46.203Z,24.1
2018-10-21T12:11:48.026Z,24.2
2018-10-21T12:12:49.845Z,24.2
2018-10-21T12:13:52.510Z,24.2
2018-10-21T12:14:54.435Z,24.2
2018-10-21T12:15:56.114Z,24.3
2018-10-21T12:16:58.075Z,24.2
2018-10-21T12:17:59.746Z,24.2
2018-10-21T12:19:01.520Z,24.2
2018-10-21T12:20:03.496Z,24.2
2018-10-21T12:21:05.146Z,24.1
2018-10-21T12:22:07.143Z,24.1
2018-10-21T12:23:08.978Z,24.0
2018-10-21T12:24:10.912Z,24.0
2018-10-21T12:25:13.001Z,24.0
2018-10-21T12:26:14.706Z,24.1
2018-10-21T12:27:16.298Z,24.1
2018-10-21T12:28:18.185Z,24.1
2018-10-21T12:29:20.041Z,24.2
2018-10-21T12:30:21.770Z,24.3
2018-10-21T12:31:23.643Z,24.3
2018-10-21T12:32:25.277Z,24.4
2018-10-21T12:33:27.105Z,24.3
2018-10-21T12:34:28.999Z,24.2
2018-10-21T12:35:31.685Z,24.2
2018-10-21T12:36:33.406Z,24.2
2018-10-21T12:37:35.291Z,24.2
2018-10-21T12:38:37.203Z,24.3
2018-10-21T12:39:39.116Z,24.2
2018-10-21T12:40:41.000Z,24.2
2018-10-21T12:41:42.858Z,24.2
2018-10-21T12:42:44.525Z,24.3
2018-10-21T12:43:46.434Z,24.3
2018-10-21T12:44:48.332Z,24.4
2018-10-21T12:45:50.124Z,24.3
2018-10-21T12:46:51.968Z,24.2
2018-10-21T12:47:53.885Z,24.2
2018-10-21T12:48:55.635Z,24.3
2018-10-21T12:49:57.533Z,24.2
2018-10-21T12:50:59.281Z,24.2
2018-10-21T12:52:01.697Z,24.2
2018-10-21T12:53:03.516Z,24.2
2018-10-21T12:54:05.252Z,24.2
2018-10-21T12:55:07.044Z,24.4
2018-10-21T12:56:08.642Z,24.4
2018-10-21T12:57:10.467Z,24.3
2018-10-21T12:58:12.219Z,24.3
2018-10-21T12:59:14.626Z,24.4
2018-10-21T13:00:16.573Z,24.2
2018-10-21T13:01:18.227Z,24.2
2018-10-21T13:02:19.924Z,24.2
2018-10-21T13:03:21.660Z,24.2
2018-10-21T13:04:23.466Z,24.1
2018-10-21T13:05:25.269Z,24.0
2018-10-21T13:06:27.023Z,24.0
2018-10-21T13:07:28.824Z,24.1
2018-10-21T13:08:30.627Z,24.1
2018-10-21T13:09:32.685Z,24.1
2018-10-21T13:10:34.442Z,24.1
2018-10-21T13:11:36.103Z,24.0
2018-10-21T13:12:37.827Z,24.1
2018-10-21T13:13:39.443Z,24.2
2018-10-21T13:14:41.141Z,24.3
2018-10-21T13:15:42.911Z,24.1
2018-10-21T13:16:44.630Z,23.9
2018-10-21T13:17:46.607Z,23.8
2018-10-21T13:18:49.234Z,23.9
2018-10-21T13:19:51.124Z,24.0
2018-10-21T13:20:52.832Z,24.0
2018-10-21T13:21:54.484Z,23.8
2018-10-21T13:22:56.301Z,23.9
2018-10-21T13:23:58.165Z,23.9
2018-10-21T13:24:59.886Z,24.0
2018-10-21T13:26:01.793Z,24.0
2018-10-21T13:27:03.860Z,24.0
2018-10-21T13:28:05.925Z,24.1
2018-10-21T13:29:07.866Z,24.1
2018-10-21T13:30:09.935Z,24.2
2018-10-21T13:31:11.982Z,24.2
2018-10-21T13:32:13.947Z,24.2
2018-10-21T13:33:16.040Z,24.2
2018-10-21T13:34:18.148Z,24.2
2018-10-21T13:35:19.979Z,24.2
2018-10-21T13:36:22.328Z,24.2
2018-10-21T13:37:24.324Z,24.3
2018-10-21T13:38:26.065Z,24.2
2018-10-21T13:39:28.217Z,24.2
2018-10-21T13:40:30.127Z,24.2
2018-10-21T13:41:31.819Z,24.2
2018-10-21T13:42:33.675Z,24.2
2018-10-21T13:43:35.526Z,24.1
2018-10-21T13:44:37.615Z,24.1
2018-10-21T13:45:39.841Z,23.9
2018-10-21T13:46:41.972Z,24.0
2018-10-21T13:47:44.009Z,23.9
2018-10-21T13:48:46.069Z,24.0
2018-10-21T13:49:47.736Z,23.9
2018-10-21T13:50:49.699Z,23.8
2018-10-21T13:51:52.088Z,23.9
2018-10-21T13:52:54.231Z,23.9
2018-10-21T13:53:56.314Z,24.0
2018-10-21T13:54:58.293Z,23.9